Time;durP1;ratioP1;P1;durP2;ratioP2;P2;SDS_P1;SDS_P2;PMS_P1;PMS_P2;Temp;Humidity;BMP_temperature;BMP_pressure;BME280_temperature;BME280_humidity;BME280_pressure;Samples;Min_cycle;Max_cycle;Signal;HPM_P1;HPM_P2
2021/03/01 00:02:00;;;;;;;23.05;10.10;;;;;;;3.36;95.11;102835.28;4994354;28;20046;-80
2021/03/01 00:04:27;;;;;;;22.08;9.27;;;;;;;3.53;95.43;102839.72;4957523;28;20074;-78
2021/03/01 00:06:53;;;;;;;30.63;10.45;;;;;;;3.82;93.64;102833.78;4978192;28;20073;-78
2021/03/01 00:09:20;;;;;;;17.10;9.90;;;;;;;3.69;93.48;102838.09;4994736;28;20054;-78
2021/03/01 00:11:47;;;;;;;18.60;9.57;;;;;;;3.92;92.80;102845.13;4992177;28;20224;-79
2021/03/01 00:14:14;;;;;;;18.60;9.52;;;;;;;3.93;92.75;102839.06;4989258;28;20074;-77
2021/03/01 00:16:41;;;;;;;19.17;9.55;;;;;;;3.72;93.63;102837.22;4974872;28;20101;-80
2021/03/01 00:19:07;;;;;;;21.65;9.35;;;;;;;3.63;94.60;102847.59;4977264;28;20141;-80
2021/03/01 00:21:34;;;;;;;20.55;10.00;;;;;;;3.45;94.65;102848.34;4975802;28;20157;-80
2021/03/01 00:24:01;;;;;;;17.45;8.80;;;;;;;3.66;94.15;102858.91;4976012;28;20116;-80
2021/03/01 00:26:28;;;;;;;17.50;8.88;;;;;;;3.84;94.10;102844.22;4995108;28;21216;-79
2021/03/01 00:28:54;;;;;;;15.00;8.68;;;;;;;3.82;93.09;102836.38;4978257;28;20078;-81
2021/03/01 00:31:22;;;;;;;21.92;9.02;;;;;;;3.77;93.82;102852.00;4980685;28;20054;-81
2021/03/01 00:33:49;;;;;;;16.38;8.93;;;;;;;3.77;93.49;102848.53;4983899;28;20058;-80
2021/03/01 00:36:16;;;;;;;14.98;8.50;;;;;;;4.11;92.74;102846.94;4985244;28;20054;-80
2021/03/01 00:38:43;;;;;;;16.70;9.85;;;;;;;4.04;91.87;102846.03;4962970;28;20274;-80
2021/03/01 00:41:10;;;;;;;21.95;9.93;;;;;;;3.89;92.35;102842.50;5005053;28;20043;-80
2021/03/01 00:43:36;;;;;;;19.20;9.93;;;;;;;3.94;92.43;102839.06;4986793;28;20134;-79
2021/03/01 00:46:04;;;;;;;19.08;8.75;;;;;;;3.97;92.32;102838.22;4970546;28;20069;-79
2021/03/01 00:48:30;;;;;;;15.32;7.90;;;;;;;3.99;92.86;102839.94;4992440;28;20050;-79
2021/03/01 00:50:58;;;;;;;19.40;9.30;;;;;;;4.04;92.05;102838.22;4985948;28;20070;-79
2021/03/01 00:53:27;;;;;;;17.85;8.98;;;;;;;4.14;92.65;102833.03;4999655;28;22024;-78
2021/03/01 00:55:54;;;;;;;17.33;9.13;;;;;;;4.22;90.80;102834.78;4985496;28;20304;-80
2021/03/01 00:58:21;;;;;;;18.77;9.05;;;;;;;4.39;90.69;102832.25;4965721;28;20269;-80
2021/03/01 01:00:50;;;;;;;16.73;9.00;;;;;;;4.31;90.78;102833.94;4982825;28;20058;-79
2021/03/01 01:03:18;;;;;;;19.85;8.60;;;;;;;4.12;91.46;102840.84;4981514;28;20054;-80
2021/03/01 01:05:45;;;;;;;21.83;9.52;;;;;;;4.09;91.29;102837.38;4983076;28;20051;-79
2021/03/01 01:08:12;;;;;;;19.08;9.48;;;;;;;4.03;90.97;102833.88;4984986;28;20050;-79
2021/03/01 01:10:39;;;;;;;15.85;9.48;;;;;;;3.99;92.25;102836.47;5012845;28;20103;-78
2021/03/01 01:13:06;;;;;;;24.38;9.90;;;;;;;3.92;91.97;102837.31;4991903;28;20100;-80
2021/03/01 01:15:33;;;;;;;19.30;9.50;;;;;;;3.73;92.54;102837.22;4976555;28;20054;-79
2021/03/01 01:18:01;;;;;;;20.60;8.85;;;;;;;3.87;92.69;102831.19;4991530;28;20057;-78
2021/03/01 01:20:28;;;;;;;19.27;8.63;;;;;;;3.86;92.04;102825.13;4992613;28;20114;-79
2021/03/01 01:22:55;;;;;;;23.25;9.27;;;;;;;4.04;92.44;102817.38;4975766;28;20130;-80
2021/03/01 01:25:21;;;;;;;23.73;9.82;;;;;;;3.98;91.97;102821.69;4982445;28;20077;-80
2021/03/01 01:27:49;;;;;;;15.02;8.60;;;;;;;3.90;92.42;102821.66;4998748;28;20050;-78
2021/03/01 01:30:19;;;;;;;18.67;9.30;;;;;;;4.02;91.41;102821.72;4968508;28;20038;-79
2021/03/01 01:32:47;;;;;;;18.58;9.18;;;;;;;3.98;91.08;102825.16;4966329;28;20085;-79
2021/03/01 01:35:15;;;;;;;18.02;10.10;;;;;;;3.86;91.62;102819.03;4997646;28;20109;-79
2021/03/01 01:37:42;;;;;;;21.90;9.25;;;;;;;4.03;92.06;102814.75;4988040;28;20042;-79
2021/03/01 01:40:11;;;;;;;19.05;9.68;;;;;;;4.04;91.09;102809.53;4980233;28;20115;-79
2021/03/01 01:42:38;;;;;;;18.20;9.43;;;;;;;3.88;91.51;102806.91;4976900;28;20099;-79
2021/03/01 01:45:14;;;;;;;19.05;9.60;;;;;;;3.95;91.97;102801.69;4990750;28;20058;-79
2021/03/01 01:47:42;;;;;;;17.95;9.60;;;;;;;4.03;90.94;102804.34;4971996;28;20050;-79
2021/03/01 01:50:10;;;;;;;17.92;9.48;;;;;;;3.85;91.35;102794.72;4988810;28;20058;-80
2021/03/01 01:52:37;;;;;;;21.30;9.40;;;;;;;3.88;91.87;102796.47;4967906;28;20157;-78
2021/03/01 01:55:06;;;;;;;18.75;9.73;;;;;;;3.82;92.32;102799.91;4974349;28;20295;-78
2021/03/01 01:57:35;;;;;;;23.67;10.25;;;;;;;3.81;91.79;102791.22;4992513;28;20137;-80
2021/03/01 02:00:14;;;;;;;20.30;10.10;;;;;;;3.94;92.12;102788.66;5000993;28;20161;-81
2021/03/01 02:02:41;;;;;;;19.77;9.75;;;;;;;3.95;91.84;102793.00;4995610;28;20113;-82
2021/03/01 02:05:09;;;;;;;19.00;10.65;;;;;;;4.00;91.51;102784.34;4962066;28;20050;-81
2021/03/01 02:07:58;;;;;;;22.33;10.52;;;;;;;3.81;91.68;102786.00;4975900;28;20133;-81
2021/03/01 02:10:31;;;;;;;22.77;10.55;;;;;;;3.73;93.15;102792.91;4974225;28;20046;-82
2021/03/01 02:13:17;;;;;;;20.63;9.18;;;;;;;3.93;92.33;102794.75;4957527;28;20054;-81
2021/03/01 02:16:07;;;;;;;19.05;9.45;;;;;;;3.92;91.90;102795.63;4977008;28;20444;-81
2021/03/01 02:18:33;;;;;;;20.25;10.88;;;;;;;3.91;92.01;102802.53;5003339;28;20053;-80
2021/03/01 02:21:11;;;;;;;23.95;10.60;;;;;;;3.97;91.78;102799.97;4986271;28;20055;-81
2021/03/01 02:23:38;;;;;;;19.85;9.70;;;;;;;3.92;91.16;102800.84;4989142;28;20038;-81
2021/03/01 02:26:16;;;;;;;25.40;10.52;;;;;;;3.69;92.86;102796.41;4973755;28;20133;-80
2021/03/01 02:28:45;;;;;;;19.58;10.13;;;;;;;3.68;93.33;102797.25;4982154;28;20073;-80
2021/03/01 02:31:16;;;;;;;18.85;10.90;;;;;;;3.66;92.80;102801.59;4962063;28;20078;-82
2021/03/01 02:33:51;;;;;;;21.73;10.98;;;;;;;3.79;92.21;102799.91;4978431;28;20064;-80
2021/03/01 02:36:21;;;;;;;25.10;11.20;;;;;;;3.87;92.16;102799.94;4994134;28;20058;-80
2021/03/01 02:38:49;;;;;;;24.27;10.82;;;;;;;3.94;91.83;102797.34;4936910;28;20064;-81
2021/03/01 02:41:17;;;;;;;20.42;11.30;;;;;;;3.94;91.65;102797.34;4967841;28;20082;-81
2021/03/01 02:43:44;;;;;;;24.63;10.65;;;;;;;4.16;90.60;102800.03;4958972;28;20049;-82
2021/03/01 02:46:12;;;;;;;26.20;11.90;;;;;;;4.26;90.59;102799.19;4986696;28;20102;-81
2021/03/01 02:48:40;;;;;;;23.50;11.52;;;;;;;4.22;89.57;102794.81;4983421;28;20165;-81
2021/03/01 02:51:07;;;;;;;22.13;11.00;;;;;;;4.07;90.31;102791.31;5001003;28;20426;-81
2021/03/01 02:53:36;;;;;;;20.13;10.88;;;;;;;4.04;90.21;102796.50;4959966;28;20118;-83
2021/03/01 02:56:02;;;;;;;24.73;11.30;;;;;;;3.89;91.08;102799.06;4988375;28;20038;-80
2021/03/01 02:58:31;;;;;;;22.67;10.88;;;;;;;3.84;91.31;102795.59;4975321;28;20077;-80
2021/03/01 03:00:58;;;;;;;22.95;11.73;;;;;;;3.68;92.25;102793.78;4974285;28;20046;-81
2021/03/01 03:03:27;;;;;;;21.83;11.95;;;;;;;3.67;92.55;102802.47;4992476;28;20121;-81
2021/03/01 03:05:54;;;;;;;21.80;10.45;;;;;;;3.78;91.82;102799.06;4985973;28;20074;-82
2021/03/01 03:08:23;;;;;;;22.65;11.50;;;;;;;3.81;91.46;102792.97;4978727;28;20057;-81
2021/03/01 03:10:51;;;;;;;23.65;11.25;;;;;;;3.72;92.14;102804.22;4989575;28;20018;-80
2021/03/01 03:13:18;;;;;;;23.13;11.25;;;;;;;3.76;92.12;102802.50;4982638;28;20050;-80
2021/03/01 03:15:49;;;;;;;23.67;11.98;;;;;;;3.82;92.33;102807.72;4985667;28;20068;-81
2021/03/01 03:18:17;;;;;;;27.38;12.30;;;;;;;3.72;91.50;102806.81;5006291;28;20045;-81
2021/03/01 03:20:44;;;;;;;27.05;12.30;;;;;;;3.71;92.35;102806.81;4974759;28;20541;-82
2021/03/01 03:23:11;;;;;;;27.70;12.32;;;;;;;3.74;91.96;102799.03;4976234;28;20062;-81
2021/03/01 03:25:38;;;;;;;23.35;10.77;;;;;;;3.57;92.87;102805.91;4985187;28;20046;-81
2021/03/01 03:28:06;;;;;;;22.05;11.38;;;;;;;3.52;93.34;102809.34;4995669;28;20130;-82
2021/03/01 03:30:33;;;;;;;24.98;13.07;;;;;;;3.50;94.07;102807.56;4984881;28;20085;-82
2021/03/01 03:33:01;;;;;;;27.63;13.02;;;;;;;3.56;93.30;102799.81;4983943;28;20371;-82
2021/03/01 03:35:28;;;;;;;22.42;11.77;;;;;;;3.66;93.32;102803.34;5001853;28;20058;-81
2021/03/01 03:38:04;;;;;;;27.27;12.95;;;;;;;3.81;92.31;102801.66;4994187;28;20096;-81
2021/03/01 03:40:32;;;;;;;21.90;11.88;;;;;;;3.71;92.68;102812.03;4992136;28;20061;-81
2021/03/01 03:42:59;;;;;;;26.60;12.77;;;;;;;3.50;93.67;102810.19;4979999;28;20056;-81
2021/03/01 03:45:26;;;;;;;25.85;13.43;;;;;;;3.47;93.66;102807.59;4966727;28;20069;-81
2021/03/01 03:47:55;;;;;;;24.63;12.32;;;;;;;3.80;92.50;102809.47;4992471;28;20110;-80
2021/03/01 03:50:23;;;;;;;29.23;12.88;;;;;;;3.81;92.23;102811.19;5005222;28;20073;-79
2021/03/01 03:52:54;;;;;;;24.05;12.45;;;;;;;3.71;92.50;102806.81;4981343;28;20168;-82
2021/03/01 03:55:22;;;;;;;24.52;12.40;;;;;;;3.76;92.20;102807.72;4983647;28;20089;-81
2021/03/01 03:57:59;;;;;;;26.95;13.23;;;;;;;3.74;92.44;102812.06;4972663;28;20081;-80
2021/03/01 04:00:31;;;;;;;22.48;11.95;;;;;;;3.73;92.35;102813.75;4964805;28;20077;-81
2021/03/01 04:03:01;;;;;;;23.83;12.02;;;;;;;3.63;92.88;102813.72;4972365;28;20054;-81
2021/03/01 04:05:28;;;;;;;23.58;13.27;;;;;;;3.85;91.03;102819.91;4989164;28;20058;-81
2021/03/01 04:07:56;;;;;;;28.15;13.05;;;;;;;3.94;90.58;102818.19;4987406;28;20056;-81
2021/03/01 04:10:23;;;;;;;23.75;12.77;;;;;;;3.92;90.49;102817.34;5008091;28;20116;-81
2021/03/01 04:12:52;;;;;;;25.55;13.63;;;;;;;3.59;92.43;102811.97;4975950;28;20077;-81
2021/03/01 04:15:19;;;;;;;26.58;13.35;;;;;;;3.57;92.86;102822.38;4987470;28;20171;-81
2021/03/01 04:17:47;;;;;;;30.80;14.40;;;;;;;3.66;92.69;102818.97;4967209;28;20092;-82
2021/03/01 04:20:15;;;;;;;25.75;12.20;;;;;;;3.81;92.04;102812.06;4985583;28;20529;-81
2021/03/01 04:22:42;;;;;;;29.08;13.63;;;;;;;3.57;92.61;102821.53;4991598;28;20053;-81
2021/03/01 04:25:09;;;;;;;22.33;13.13;;;;;;;3.47;92.66;102826.69;4990585;28;20062;-83
2021/03/01 04:27:38;;;;;;;25.33;13.25;;;;;;;3.50;93.46;102816.25;4973389;28;20058;-82
2021/03/01 04:30:09;;;;;;;27.08;13.80;;;;;;;3.61;93.25;102818.94;4988487;28;20137;-82
2021/03/01 04:32:37;;;;;;;27.98;13.57;;;;;;;3.53;92.83;102829.31;4985357;28;20086;-81
2021/03/01 04:35:06;;;;;;;25.90;14.07;;;;;;;3.50;93.07;102829.28;4965318;28;20133;-80
2021/03/01 04:37:33;;;;;;;31.88;14.75;;;;;;;3.35;93.55;102818.78;4978989;28;20058;-81
2021/03/01 04:40:00;;;;;;;28.55;14.45;;;;;;;3.63;93.01;102818.94;4998236;28;20050;-81
2021/03/01 04:42:28;;;;;;;28.65;14.52;;;;;;;3.68;92.53;102822.44;4990410;28;20050;-82
2021/03/01 04:44:58;;;;;;;34.22;15.15;;;;;;;3.69;92.60;102816.34;5007377;28;20039;-81
2021/03/01 04:47:30;;;;;;;27.40;13.88;;;;;;;3.66;92.38;102813.75;4975518;28;20066;-81
2021/03/01 04:49:58;;;;;;;27.48;14.25;;;;;;;3.78;91.59;102816.38;4973504;28;20042;-79
2021/03/01 04:52:31;;;;;;;32.20;13.32;;;;;;;3.84;91.39;102813.84;4989576;28;20054;-81
2021/03/01 04:55:00;;;;;;;33.95;15.10;;;;;;;3.95;91.31;102819.06;5002775;28;20066;-82
2021/03/01 04:57:28;;;;;;;32.80;15.05;;;;;;;3.97;90.87;102817.34;4967374;28;20277;-81
2021/03/01 04:59:57;;;;;;;28.60;14.57;;;;;;;3.91;90.63;102812.97;4975618;28;20054;-81
2021/03/01 05:02:24;;;;;;;27.60;13.52;;;;;;;3.74;91.44;102820.75;5006966;28;20034;-82
2021/03/01 05:04:51;;;;;;;24.90;13.40;;;;;;;3.87;91.08;102821.63;4973678;28;20038;-80
2021/03/01 05:07:19;;;;;;;26.48;14.43;;;;;;;4.02;90.50;102810.41;4990962;28;20073;-81
2021/03/01 05:09:46;;;;;;;25.58;14.02;;;;;;;4.00;90.19;102814.75;4966803;28;20074;-80
2021/03/01 05:12:13;;;;;;;24.67;13.23;;;;;;;4.01;90.08;102819.97;4983640;28;20046;-81
2021/03/01 05:14:40;;;;;;;28.17;14.50;;;;;;;3.93;90.72;102815.59;4989011;28;20054;-81
2021/03/01 05:17:06;;;;;;;29.00;14.32;;;;;;;3.93;90.36;102819.06;4988766;28;20065;-81
2021/03/01 05:19:34;;;;;;;27.20;13.90;;;;;;;3.94;90.49;102827.75;4966132;28;20055;-79
2021/03/01 05:22:00;;;;;;;26.45;14.45;;;;;;;4.01;90.78;102829.53;4983986;28;20060;-82
2021/03/01 05:24:27;;;;;;;28.33;14.02;;;;;;;3.99;90.13;102824.31;4997496;28;20058;-82
2021/03/01 05:26:54;;;;;;;31.95;13.88;;;;;;;3.97;90.23;102833.00;4988557;28;20073;-82
2021/03/01 05:29:22;;;;;;;28.67;13.45;;;;;;;3.97;90.30;102833.00;4981996;28;20048;-83
2021/03/01 05:31:48;;;;;;;28.75;15.65;;;;;;;3.90;90.29;102833.81;4976369;28;20852;-82
2021/03/01 05:34:15;;;;;;;30.80;14.70;;;;;;;3.84;91.17;102826.84;4981715;28;20058;-81
2021/03/01 05:36:42;;;;;;;29.10;15.45;;;;;;;3.81;90.56;102837.25;4988701;28;20046;-81
2021/03/01 05:39:12;;;;;;;28.35;14.15;;;;;;;3.75;90.95;102832.03;4984728;28;20066;-83
2021/03/01 05:41:40;;;;;;;33.35;15.73;;;;;;;4.00;90.83;102828.63;4996795;28;20354;-80
2021/03/01 05:44:08;;;;;;;31.73;15.05;;;;;;;4.03;89.48;102833.00;4999564;28;20030;-81
2021/03/01 05:46:35;;;;;;;30.73;14.68;;;;;;;3.96;90.32;102846.88;4978253;28;20062;-83
2021/03/01 05:49:03;;;;;;;28.17;14.90;;;;;;;4.07;89.96;102848.66;4976812;28;20122;-83
2021/03/01 05:51:31;;;;;;;30.50;14.25;;;;;;;4.02;89.69;102847.78;4978924;28;20085;-79
2021/03/01 05:54:00;;;;;;;29.60;13.20;;;;;;;4.21;88.51;102851.31;4997098;28;21548;-81
2021/03/01 05:56:27;;;;;;;33.75;14.50;;;;;;;4.09;89.50;102858.22;4982506;28;20830;-82
2021/03/01 05:58:55;;;;;;;26.58;14.45;;;;;;;4.12;89.78;102855.63;4989248;28;20101;-81
2021/03/01 06:01:25;;;;;;;26.52;13.65;;;;;;;4.06;89.10;102856.47;4997706;28;20141;-82
2021/03/01 06:03:52;;;;;;;24.17;13.75;;;;;;;4.12;89.20;102858.25;5002637;28;20077;-81
2021/03/01 06:06:19;;;;;;;28.70;14.68;;;;;;;4.10;89.10;102855.63;4968611;28;20062;-81
2021/03/01 06:08:46;;;;;;;29.65;14.38;;;;;;;4.17;88.94;102861.72;4981928;28;20050;-81
2021/03/01 06:11:13;;;;;;;32.83;14.57;;;;;;;4.26;88.40;102861.75;4981061;28;20050;-81
2021/03/01 06:13:39;;;;;;;29.30;15.02;;;;;;;4.14;88.81;102861.69;4998526;28;20061;-80
2021/03/01 06:16:07;;;;;;;33.20;15.23;;;;;;;3.86;89.40;102865.94;4965284;28;20119;-81
2021/03/01 06:18:43;;;;;;;30.50;15.30;;;;;;;4.06;88.55;102853.88;4996201;28;20034;-81
2021/03/01 06:21:13;;;;;;;29.80;13.93;;;;;;;4.16;88.41;102857.38;4978256;28;20055;-80
2021/03/01 06:23:42;;;;;;;28.25;15.77;;;;;;;4.20;88.39;102869.56;4995866;28;20068;-82
2021/03/01 06:26:29;;;;;;;31.70;15.30;;;;;;;4.24;88.09;102866.97;4954429;28;20114;-80
2021/03/01 06:29:01;;;;;;;29.98;14.30;;;;;;;4.33;86.86;102863.53;4971170;28;20094;-80
2021/03/01 06:31:35;;;;;;;28.42;14.57;;;;;;;4.26;87.75;102872.19;4976284;28;20068;-81
2021/03/01 06:34:22;;;;;;;34.10;15.70;;;;;;;4.52;86.59;102865.31;4996590;28;20077;-80
2021/03/01 06:37:18;;;;;;;29.92;15.00;;;;;;;4.52;86.32;102870.53;4975579;28;20046;-82
2021/03/01 06:39:47;;;;;;;31.35;13.23;;;;;;;4.51;86.24;102866.19;4956790;28;20081;-82
2021/03/01 06:42:17;;;;;;;24.73;14.10;;;;;;;4.50;86.31;102864.44;4980250;28;20125;-81
2021/03/01 06:44:44;;;;;;;26.35;13.50;;;;;;;4.54;86.38;102867.91;4971804;28;20166;-81
2021/03/01 06:47:12;;;;;;;26.65;14.48;;;;;;;4.51;86.38;102866.19;4992537;28;20137;-80
2021/03/01 06:49:40;;;;;;;28.13;14.27;;;;;;;4.59;86.03;102868.78;4959893;28;20073;-82
2021/03/01 06:52:08;;;;;;;30.08;12.70;;;;;;;4.64;85.87;102871.41;4991475;28;20066;-82
2021/03/01 06:54:35;;;;;;;27.92;13.07;;;;;;;4.72;85.14;102862.72;4955513;28;20054;-81
2021/03/01 06:57:09;;;;;;;29.52;14.93;;;;;;;4.56;85.98;102867.06;4965011;28;20276;-84
2021/03/01 07:00:03;;;;;;;28.23;14.98;;;;;;;4.59;86.13;102863.56;4973098;28;20031;-85
2021/03/01 07:02:40;;;;;;;29.23;12.88;;;;;;;4.79;85.01;102866.22;4990070;28;20066;-87
2021/03/01 07:05:08;;;;;;;26.17;12.27;;;;;;;4.94;84.05;102855.78;4988167;28;20420;-87
2021/03/01 07:07:36;;;;;;;31.52;13.43;;;;;;;4.96;84.08;102851.44;4986531;28;20145;-84
2021/03/01 07:10:06;;;;;;;29.58;13.88;;;;;;;5.14;83.65;102857.53;4985198;28;20539;-83
2021/03/01 07:12:37;;;;;;;30.50;13.23;;;;;;;5.20;83.01;102854.91;4975948;28;20042;-84
2021/03/01 07:15:08;;;;;;;30.23;13.60;;;;;;;5.27;81.95;102852.28;4957519;28;20064;-87
2021/03/01 07:17:40;;;;;;;29.73;13.88;;;;;;;5.14;82.46;102855.78;4973023;28;20050;-86
2021/03/01 07:20:11;;;;;;;26.48;13.40;;;;;;;5.15;82.64;102856.66;4981468;28;20457;-83
2021/03/01 07:22:39;;;;;;;25.13;13.60;;;;;;;5.20;82.32;102861.00;4990547;28;20061;-85
2021/03/01 07:25:10;;;;;;;27.40;12.88;;;;;;;5.12;83.04;102861.88;4990911;28;20046;-86
2021/03/01 07:27:40;;;;;;;27.70;12.88;;;;;;;5.46;81.36;102862.72;4974080;28;20065;-86
2021/03/01 07:30:10;;;;;;;39.72;16.25;;;;;;;5.44;81.28;102862.69;4989534;28;20062;-81
2021/03/01 07:32:38;;;;;;;29.60;14.80;;;;;;;5.30;81.81;102867.94;5003222;28;20034;-79
2021/03/01 07:35:07;;;;;;;35.15;13.52;;;;;;;5.44;81.65;102862.69;4997475;28;20114;-80
2021/03/01 07:37:37;;;;;;;24.42;14.05;;;;;;;5.49;80.16;102866.19;4991395;28;20075;-80
2021/03/01 07:40:06;;;;;;;32.83;14.35;;;;;;;5.63;79.10;102876.63;4991983;28;20114;-81
2021/03/01 07:42:38;;;;;;;33.30;18.38;;;;;;;5.69;77.24;102873.09;4965976;28;20056;-81
2021/03/01 07:45:09;;;;;;;38.38;16.08;;;;;;;5.78;77.26;102860.88;4978439;28;20054;-79
2021/03/01 07:47:35;;;;;;;30.67;16.23;;;;;;;5.77;78.14;102864.38;4957110;28;20085;-79
2021/03/01 07:50:06;;;;;;;34.80;16.70;;;;;;;5.78;78.24;102863.50;4990311;28;20049;-80
2021/03/01 07:52:34;;;;;;;40.58;21.98;;;;;;;5.78;77.07;102871.34;5009956;28;20116;-78
2021/03/01 07:55:07;;;;;;;38.85;24.65;;;;;;;5.88;75.87;102881.75;4988164;28;20060;-80
2021/03/01 07:57:35;;;;;;;53.05;28.30;;;;;;;5.45;76.80;102881.84;5002516;28;20097;-82
2021/03/01 08:00:24;;;;;;;42.72;26.27;;;;;;;5.23;78.17;102881.91;4994310;28;20054;-79
2021/03/01 08:02:51;;;;;;;43.22;23.77;;;;;;;5.60;77.25;102879.22;4954281;28;20093;-79
2021/03/01 08:05:30;;;;;;;49.97;27.00;;;;;;;5.53;77.23;102882.72;4990733;28;20054;-79
2021/03/01 08:08:00;;;;;;;42.65;22.58;;;;;;;5.61;76.71;102886.19;4962818;28;20064;-80
2021/03/01 08:10:27;;;;;;;38.88;22.25;;;;;;;5.82;76.63;102887.88;5004900;28;20406;-81
2021/03/01 08:13:03;;;;;;;33.42;20.27;;;;;;;6.08;75.65;102882.59;4999962;28;20056;-81
2021/03/01 08:15:40;;;;;;;40.38;20.83;;;;;;;6.13;75.38;102882.59;4964807;28;20078;-79
2021/03/01 08:18:08;;;;;;;49.03;22.90;;;;;;;5.57;76.93;102887.06;4981365;28;20070;-81
2021/03/01 08:20:37;;;;;;;42.22;25.15;;;;;;;5.59;76.76;102890.56;5005258;28;20038;-80
2021/03/01 08:23:05;;;;;;;50.80;24.00;;;;;;;5.83;76.04;102889.63;4997235;28;20050;-81
2021/03/01 08:25:41;;;;;;;41.05;25.15;;;;;;;5.98;75.71;102886.97;4971864;28;20126;-80
2021/03/01 08:28:32;;;;;;;42.85;25.73;;;;;;;6.08;74.87;102882.59;4982662;28;20182;-78
2021/03/01 08:31:05;;;;;;;41.65;22.80;;;;;;;5.91;75.14;102885.25;4988619;28;20065;-79
2021/03/01 08:33:32;;;;;;;39.53;20.83;;;;;;;6.09;75.85;102890.44;5000914;28;20085;-81
2021/03/01 08:36:20;;;;;;;35.97;20.20;;;;;;;5.85;75.01;102895.69;4990312;28;20065;-80
2021/03/01 08:38:53;;;;;;;38.92;18.95;;;;;;;6.05;75.22;102891.31;4990193;28;20069;-80
2021/03/01 08:41:32;;;;;;;33.83;20.27;;;;;;;6.46;74.06;102882.41;4959379;28;20058;-79
2021/03/01 08:44:00;;;;;;;35.38;21.08;;;;;;;6.57;73.26;102890.19;5002159;28;20050;-79
2021/03/01 08:46:26;;;;;;;39.80;22.17;;;;;;;6.51;72.73;102891.09;5000239;28;20470;-79
2021/03/01 08:48:55;;;;;;;33.75;21.50;;;;;;;5.99;74.69;102885.22;4997395;28;20061;-81
2021/03/01 08:51:22;;;;;;;39.00;21.80;;;;;;;5.88;74.39;102890.47;4981836;28;20069;-80
2021/03/01 08:53:56;;;;;;;38.17;21.40;;;;;;;6.03;74.07;102897.41;4989119;28;20125;-81
2021/03/01 08:56:26;;;;;;;33.63;20.52;;;;;;;6.38;73.22;102891.16;5001771;28;20066;-79
2021/03/01 08:58:53;;;;;;;36.97;21.05;;;;;;;6.19;73.04;102904.34;4978378;28;20086;-80
2021/03/01 09:01:23;;;;;;;38.53;21.95;;;;;;;6.15;73.12;102905.22;5000923;28;20141;-80
2021/03/01 09:03:50;;;;;;;36.90;21.15;;;;;;;6.21;73.10;102906.94;4974981;28;20054;-80
2021/03/01 09:06:22;;;;;;;38.80;21.95;;;;;;;6.11;74.07;102905.25;4973734;28;20053;-80
2021/03/01 09:08:51;;;;;;;40.33;24.25;;;;;;;5.98;73.74;102915.72;5002054;28;20058;-81
2021/03/01 09:11:21;;;;;;;39.33;23.83;;;;;;;5.97;73.57;102923.59;4966082;28;20487;-81
2021/03/01 09:13:50;;;;;;;43.40;24.65;;;;;;;6.21;73.03;102917.41;4973596;28;20108;-81
2021/03/01 09:16:18;;;;;;;37.03;23.42;;;;;;;6.50;72.34;102918.13;4973313;28;20134;-80
2021/03/01 09:18:48;;;;;;;37.13;21.08;;;;;;;6.92;70.99;102920.50;4975078;28;20108;-81
2021/03/01 09:21:17;;;;;;;40.67;22.40;;;;;;;7.46;69.16;102924.41;4978967;28;20074;-78
2021/03/01 09:23:49;;;;;;;35.72;21.92;;;;;;;7.42;68.75;102930.56;4992473;28;20046;-81
2021/03/01 09:26:32;;;;;;;33.83;23.13;;;;;;;7.48;69.06;102925.28;4982483;28;20615;-81
2021/03/01 09:29:20;;;;;;;41.80;22.65;;;;;;;7.47;68.58;102920.91;4974169;28;20130;-81
2021/03/01 09:31:54;;;;;;;38.17;22.83;;;;;;;7.19;68.92;102922.91;4959356;28;20083;-81
2021/03/01 09:34:26;;;;;;;35.87;20.30;;;;;;;7.40;68.02;102934.97;4963304;28;20069;-81
2021/03/01 09:37:08;;;;;;;37.28;21.10;;;;;;;7.09;69.23;102923.88;4981908;28;20053;-81
2021/03/01 09:39:38;;;;;;;34.45;21.08;;;;;;;7.02;69.50;102927.41;4979232;28;20062;-80
2021/03/01 09:42:05;;;;;;;33.95;20.58;;;;;;;7.16;68.84;102933.44;4942895;28;20164;-81
2021/03/01 09:44:33;;;;;;;34.92;22.27;;;;;;;6.52;70.31;102926.84;4964076;28;20194;-80
2021/03/01 09:47:00;;;;;;;45.83;23.83;;;;;;;6.82;69.86;102924.94;4968043;28;20455;-81
2021/03/01 09:49:29;;;;;;;41.47;22.52;;;;;;;7.23;68.59;102935.09;4960629;28;21708;-81
2021/03/01 09:51:56;;;;;;;33.28;21.75;;;;;;;7.36;68.59;102931.50;4962313;28;20070;-81
2021/03/01 09:54:23;;;;;;;39.10;24.02;;;;;;;7.15;68.45;102929.06;4966112;28;20462;-81
2021/03/01 09:56:54;;;;;;;43.25;25.33;;;;;;;7.11;69.19;102927.34;4964472;28;20080;-80
2021/03/01 09:59:41;;;;;;;35.03;20.70;;;;;;;7.67;67.00;102925.97;4967569;28;20050;-81
2021/03/01 10:02:25;;;;;;;30.55;19.88;;;;;;;8.09;66.89;102921.16;4952205;28;20050;-80
2021/03/01 10:05:11;;;;;;;34.38;21.15;;;;;;;6.94;68.23;102929.22;4955159;28;20054;-83
2021/03/01 10:07:38;;;;;;;34.45;21.83;;;;;;;6.85;69.85;102923.16;4953890;28;20054;-82
2021/03/01 10:10:12;;;;;;;34.42;21.20;;;;;;;7.07;69.83;102923.91;4982295;28;20052;-82
2021/03/01 10:12:49;;;;;;;35.05;22.50;;;;;;;7.25;70.21;102929.84;4947462;28;20082;-82
2021/03/01 10:15:21;;;;;;;36.40;22.60;;;;;;;7.74;67.67;102934.63;4971401;28;20054;-82
2021/03/01 10:18:09;;;;;;;35.75;21.10;;;;;;;8.17;65.61;102927.19;4980454;28;20042;-82
2021/03/01 10:20:55;;;;;;;33.88;21.70;;;;;;;7.85;66.68;102930.16;4980347;28;20196;-82
2021/03/01 10:23:36;;;;;;;31.73;21.20;;;;;;;7.63;66.78;102944.38;4944811;28;20050;-82
2021/03/01 10:26:21;;;;;;;32.83;22.15;;;;;;;8.19;64.79;102938.50;4977086;28;20054;-82
2021/03/01 10:28:52;;;;;;;33.05;21.08;;;;;;;8.21;64.59;102935.88;4975570;28;20058;-83
2021/03/01 10:31:22;;;;;;;35.53;21.50;;;;;;;8.40;64.10;102937.41;4963583;28;20913;-83
2021/03/01 10:33:57;;;;;;;29.90;20.67;;;;;;;8.20;65.25;102934.16;4964788;28;20058;-81
2021/03/01 10:36:32;;;;;;;37.78;22.23;;;;;;;8.78;62.88;102933.38;4952066;28;20073;-80
2021/03/01 10:39:04;;;;;;;31.65;21.63;;;;;;;8.35;63.39;102937.44;4981189;28;20069;-82
2021/03/01 10:41:34;;;;;;;33.80;21.52;;;;;;;7.97;63.82;102929.16;4979360;28;20069;-83
2021/03/01 10:44:06;;;;;;;33.30;21.52;;;;;;;8.26;63.95;102918.31;4968088;28;20105;-80
2021/03/01 10:46:39;;;;;;;33.60;20.75;;;;;;;8.58;62.61;102915.28;4948742;28;20050;-83
2021/03/01 10:49:21;;;;;;;31.23;20.55;;;;;;;8.56;63.64;102925.84;4964860;28;20430;-82
2021/03/01 10:51:49;;;;;;;32.30;19.58;;;;;;;8.71;62.48;102916.88;4981617;28;20049;-81
2021/03/01 10:54:16;;;;;;;33.05;20.90;;;;;;;8.59;62.12;102917.03;4965273;28;20047;-83
2021/03/01 10:56:43;;;;;;;28.83;19.30;;;;;;;8.85;61.91;102919.28;4948678;28;20058;-83
2021/03/01 10:59:10;;;;;;;31.75;20.08;;;;;;;8.45;63.75;102913.72;4985433;28;20065;-83
2021/03/01 11:01:39;;;;;;;28.27;18.45;;;;;;;8.44;62.99;102912.88;4968828;28;20050;-82
2021/03/01 11:04:08;;;;;;;28.73;16.77;;;;;;;8.73;62.03;102917.69;4987002;28;20205;-83
2021/03/01 11:06:35;;;;;;;29.58;18.83;;;;;;;7.62;64.76;102917.28;4952874;28;20167;-83
2021/03/01 11:09:04;;;;;;;31.35;19.80;;;;;;;7.43;65.83;102916.63;4972767;28;20105;-82
2021/03/01 11:11:34;;;;;;;38.80;19.98;;;;;;;7.65;66.55;102909.38;4981654;28;20121;-84
2021/03/01 11:14:01;;;;;;;34.05;18.80;;;;;;;8.01;65.10;102907.25;4970796;28;20049;-80
2021/03/01 11:16:28;;;;;;;32.45;20.17;;;;;;;7.72;65.80;102910.19;4975365;28;20058;-80
2021/03/01 11:18:55;;;;;;;28.98;19.40;;;;;;;7.14;66.73;102914.22;4975751;28;20077;-85
2021/03/01 11:21:22;;;;;;;30.13;19.77;;;;;;;6.75;68.13;102907.50;4968473;28;21113;-85
2021/03/01 11:23:49;;;;;;;32.28;20.27;;;;;;;6.81;68.40;102902.25;4985868;28;20115;-86
2021/03/01 11:26:16;;;;;;;33.35;17.13;;;;;;;6.76;69.04;102911.91;4949787;28;20061;-88
2021/03/01 11:28:45;;;;;;;31.17;18.48;;;;;;;6.34;70.13;102912.09;4978622;28;20038;-84
2021/03/01 11:31:17;;;;;;;33.45;17.15;;;;;;;6.55;69.63;102907.66;4956321;28;20047;-84
2021/03/01 11:33:44;;;;;;;26.58;15.60;;;;;;;6.57;69.82;102909.41;4960568;28;20043;-87